createdAt,value
2018-10-21T13:51:06.498Z,23.43000030517578
2018-10-21T13:51:22.259Z,23.200000762939453
2018-10-21T13:51:38.422Z,22.950000762939453
2018-10-21T13:51:55.596Z,22.799999237060547
2018-10-21T13:52:13.534Z,22.68000030517578
2018-10-21T13:52:29.818Z,22.579999923706055
2018-10-21T13:52:45.783Z,22.510000228881836
2018-10-21T13:53:02.173Z,22.459999084472656
2018-10-21T14:55:35.095Z,22.35
2018-10-21T14:55:50.881Z,22.38
2018-10-21T14:56:06.987Z,22.37
2018-10-21T14:56:22.784Z,22.37
2018-10-21T14:56:38.545Z,22.37
2018-10-21T14:56:54.420Z,22.36
2018-10-21T14:57:10.625Z,22.35
2018-10-21T14:57:26.440Z,25.16
2018-10-21T14:57:42.187Z,24.15
2018-10-21T14:57:57.975Z,22.95
2018-10-21T14:58:13.740Z,22.82
2018-10-21T15:03:22.365Z,16.48
2018-10-21T15:04:54.145Z,16.22
2018-10-21T15:06:17.032Z,16.27
2018-10-21T15:06:32.897Z,16.34
2018-10-21T15:07:36.252Z,16.24
2018-10-21T15:07:51.987Z,16.35
2018-10-21T15:08:08.117Z,16.33
2018-10-21T15:08:24.174Z,16.36
2018-10-21T15:10:31.166Z,16.23
2018-10-21T15:10:46.995Z,16.35
2018-10-21T15:11:02.710Z,16.43
2018-10-21T15:11:14.237Z,16.36
2018-10-21T15:11:29.941Z,16.32
2018-10-21T15:11:45.702Z,16.34
2018-10-21T15:12:01.679Z,16.36
2018-10-21T15:12:18.040Z,16.37
2018-10-21T15:12:33.735Z,16.38
2018-10-21T15:12:49.433Z,16.36
2018-10-21T15:13:05.142Z,16.33
2018-10-21T15:13:20.849Z,16.28
2018-10-21T15:19:43.330Z,16.2
2018-10-21T15:19:59.109Z,16.16
2018-10-21T15:20:15.228Z,16.14
2018-10-21T15:20:31.257Z,16.13
2018-10-21T15:20:46.976Z,16.16
2018-10-21T15:21:02.694Z,16.15
2018-10-21T15:21:18.425Z,16.17
2018-10-21T15:21:34.161Z,16.17
2018-10-21T15:21:49.874Z,16.15
2018-10-21T15:22:05.891Z,16.12
2018-10-21T15:22:22.154Z,16.06
2018-10-21T15:22:37.876Z,16.03
2018-10-21T15:22:53.874Z,15.97
2018-10-21T15:23:09.852Z,16
2018-10-21T15:23:26.134Z,15.98
2018-10-21T15:23:41.945Z,16.01
2018-10-21T15:23:57.653Z,16.03
2018-10-21T15:24:13.377Z,15.98
2018-10-21T15:24:29.097Z,15.98
2018-10-21T15:24:45.105Z,15.98
2018-10-21T15:25:00.865Z,15.97
2018-10-21T15:25:16.624Z,15.96
2018-10-21T15:25:32.326Z,15.98
2018-10-21T15:25:48.035Z,15.98
2018-10-21T15:26:04.151Z,15.94
2018-10-21T15:26:19.926Z,15.97
2018-10-21T15:26:35.639Z,15.97
2018-10-21T15:26:51.360Z,15.98
2018-10-21T15:27:07.075Z,15.97
2018-10-21T15:27:22.810Z,15.94
2018-10-21T15:27:38.541Z,15.92
2018-10-21T15:27:54.492Z,15.9
2018-10-21T15:28:25.395Z,15.9
2018-10-21T15:28:41.119Z,15.87
2018-10-21T15:28:57.030Z,15.85
2018-10-21T15:29:13.240Z,15.84
2018-10-21T15:29:29.012Z,15.82
2018-10-21T15:29:44.714Z,15.8
2018-10-21T15:30:01.096Z,15.75
2018-10-21T15:30:17.832Z,15.82
2018-10-21T15:30:33.691Z,15.86
2018-10-21T15:30:49.477Z,15.9
2018-10-21T15:31:05.237Z,15.94
2018-10-21T15:31:20.953Z,15.95
2018-10-21T15:31:36.648Z,15.95
2018-10-21T15:31:52.364Z,15.92
2018-10-21T15:32:08.401Z,15.9
2018-10-21T15:32:24.153Z,15.88
2018-10-21T15:32:39.889Z,15.88
2018-10-21T15:32:55.623Z,15.86
2018-10-21T15:33:11.423Z,15.85
2018-10-21T15:33:27.132Z,15.91
2018-10-21T15:33:42.844Z,15.92
2018-10-21T15:33:58.866Z,15.92
2018-10-21T15:34:15.171Z,15.94
2018-10-21T15:34:31.197Z,15.95
2018-10-21T15:34:48.251Z,15.96
2018-10-21T15:35:04.305Z,15.9
2018-10-21T15:35:20.036Z,15.83
2018-10-21T15:35:35.748Z,15.79
2018-10-21T15:35:51.472Z,15.79
2018-10-21T15:36:07.230Z,15.79
2018-10-21T15:36:22.944Z,15.78
2018-10-21T15:36:38.750Z,15.78
2018-10-21T15:36:54.449Z,15.78
2018-10-21T15:37:10.178Z,15.71
2018-10-21T15:37:25.908Z,15.7
2018-10-21T15:37:41.649Z,15.7
2018-10-21T15:37:57.590Z,15.7
2018-10-21T15:38:13.924Z,15.75
2018-10-21T15:38:29.699Z,15.75
2018-10-21T15:38:45.455Z,15.71
2018-10-21T15:39:01.207Z,15.68
2018-10-21T15:39:16.992Z,15.64
2018-10-21T15:39:32.859Z,15.62
2018-10-21T15:39:49.360Z,15.61
2018-10-21T15:40:05.831Z,15.59
2018-10-21T15:40:21.623Z,15.6
2018-10-21T15:40:37.324Z,15.58
2018-10-21T15:40:53.053Z,15.56
2018-10-21T15:41:08.775Z,15.59
2018-10-21T15:41:24.507Z,15.59
2018-10-21T15:41:40.249Z,15.56
2018-10-21T15:41:55.978Z,15.5
2018-10-21T15:42:11.712Z,15.52
2018-10-21T15:42:27.562Z,15.56
2018-10-21T15:42:43.906Z,15.55
2018-10-21T15:42:59.655Z,15.54
2018-10-21T15:43:15.377Z,15.51
2018-10-21T15:43:31.213Z,15.51
2018-10-21T15:43:47.114Z,15.53
2018-10-21T15:44:03.141Z,15.52
2018-10-21T15:44:19.692Z,15.52
2018-10-21T15:44:35.479Z,15.5
2018-10-21T15:44:51.256Z,15.5
2018-10-21T15:45:07.264Z,15.48
2018-10-21T15:45:22.973Z,15.47
2018-10-21T15:45:38.898Z,15.48
2018-10-21T15:45:55.392Z,15.47
2018-10-21T15:46:11.765Z,15.48
2018-10-21T15:46:27.613Z,15.46
2018-10-21T15:46:43.365Z,15.47
2018-10-21T15:46:59.103Z,15.5
2018-10-21T15:47:14.840Z,15.51
2018-10-21T15:47:30.558Z,15.5
2018-10-21T15:47:46.301Z,15.47
2018-10-21T15:48:02.036Z,15.42
2018-10-21T15:48:17.749Z,15.43
2018-10-21T15:48:33.659Z,15.33
2018-10-21T15:49:35.160Z,18.76
2018-10-21T15:49:51.167Z,19.47
2018-10-21T15:50:07.629Z,19.96
2018-10-21T15:51:07.091Z,21.05
2018-10-21T15:51:22.810Z,21.18
2018-10-21T15:51:38.956Z,21.26
2018-10-21T15:51:55.470Z,21.22
2018-10-21T15:52:11.426Z,21.18
2018-10-21T15:52:27.791Z,21.1
2018-10-21T15:52:43.636Z,21.17
2018-10-21T15:52:59.312Z,21.19
2018-10-21T15:53:15.016Z,21.18
2018-10-21T15:53:30.742Z,21.28
2018-10-21T15:53:47.820Z,20.81
2018-10-21T15:54:03.798Z,19.71
2018-10-21T15:54:19.952Z,18.63
2018-10-21T15:54:35.873Z,17.57
2018-10-21T15:54:52.500Z,16.92
2018-10-21T15:55:08.547Z,16.4
2018-10-21T15:55:24.258Z,16.11
2018-10-21T15:55:39.965Z,15.91
2018-10-21T15:55:55.864Z,15.76
2018-10-21T15:56:12.349Z,15.62
2018-10-21T15:56:28.210Z,15.51
2018-10-21T15:56:43.916Z,15.42
2018-10-21T15:56:59.652Z,15.35
2018-10-21T15:57:15.353Z,15.3
2018-10-21T15:57:31.074Z,15.28
2018-10-21T15:57:46.765Z,15.28
2018-10-21T15:58:02.822Z,15.27
2018-10-21T15:58:19.413Z,15.22
2018-10-21T15:58:35.146Z,15.16
2018-10-21T15:58:50.899Z,15.16
2018-10-21T15:59:06.645Z,15.16
2018-10-21T15:59:22.366Z,15.16
2018-10-21T15:59:38.055Z,15.15
2018-10-21T15:59:53.818Z,15.13
2018-10-21T16:00:09.814Z,15.1
2018-10-21T16:00:25.552Z,15.1
2018-10-21T16:00:41.255Z,15.01
2018-10-21T16:00:56.941Z,14.96
2018-10-21T16:01:12.688Z,14.91
2018-10-21T16:01:28.491Z,14.84
2018-10-21T16:01:44.219Z,14.81
2018-10-21T16:02:00.188Z,14.8
2018-10-21T16:02:16.925Z,14.78
2018-10-21T16:02:33.074Z,14.83
2018-10-21T16:02:48.957Z,14.85
2018-10-21T16:03:04.759Z,14.87
2018-10-21T16:03:20.538Z,14.9
2018-10-21T16:03:36.285Z,14.92
2018-10-21T16:03:52.103Z,14.9
2018-10-21T16:04:08.361Z,14.88
2018-10-21T16:04:24.370Z,14.86
2018-10-21T16:04:40.312Z,14.81
2018-10-21T16:04:56.710Z,14.78
2018-10-21T16:05:12.754Z,14.76
2018-10-21T16:05:28.539Z,14.74
2018-10-21T16:05:44.397Z,14.76
2018-10-21T16:06:00.276Z,14.8
2018-10-21T16:06:16.189Z,14.83
2018-10-21T16:06:32.023Z,14.84
2018-10-21T16:06:48.008Z,14.83
2018-10-21T16:07:03.837Z,14.8
2018-10-21T16:07:19.710Z,14.76
2018-10-21T16:07:35.676Z,14.73
2018-10-21T16:07:51.645Z,14.68
2018-10-21T16:08:08.200Z,14.68
2018-10-21T16:08:24.151Z,14.71
2018-10-21T16:08:40.028Z,14.73
2018-10-21T16:08:55.927Z,14.7
2018-10-21T16:09:11.780Z,14.71
2018-10-21T16:09:27.667Z,14.76
2018-10-21T16:09:43.480Z,14.79
2018-10-21T16:09:59.561Z,14.77
2018-10-21T16:10:16.622Z,14.72
2018-10-21T16:10:32.750Z,14.64
2018-10-21T16:10:48.589Z,14.63
2018-10-21T16:11:04.371Z,14.59
2018-10-21T16:11:20.166Z,14.56
2018-10-21T16:11:35.937Z,14.54
2018-10-21T16:11:51.743Z,14.54
2018-10-21T16:12:07.559Z,14.53
2018-10-21T16:12:23.367Z,14.51
2018-10-21T16:12:39.175Z,14.5
2018-10-21T16:12:54.943Z,14.49
2018-10-21T16:13:10.727Z,14.47
2018-10-21T16:13:26.480Z,14.45
2018-10-21T16:13:42.436Z,14.43
2018-10-21T16:13:58.813Z,14.43
2018-10-21T16:14:14.833Z,14.43
2018-10-21T16:14:31.351Z,14.44
2018-10-21T16:14:47.116Z,14.48
2018-10-21T16:15:02.863Z,14.48
2018-10-21T16:15:18.882Z,14.5
2018-10-21T16:15:34.838Z,14.49
2018-10-21T16:15:51.131Z,14.44
2018-10-21T16:16:07.449Z,14.46
2018-10-21T16:16:23.231Z,14.45
2018-10-21T16:16:38.991Z,14.41
2018-10-21T16:16:54.753Z,14.38
2018-10-21T16:17:10.487Z,14.36
2018-10-21T16:17:26.317Z,14.36
2018-10-21T16:17:42.069Z,14.34
2018-10-21T16:17:57.811Z,14.29
2018-10-21T16:18:13.579Z,14.28
2018-10-21T16:18:29.401Z,14.26
2018-10-21T16:18:45.196Z,14.29
2018-10-21T16:19:00.987Z,14.3
2018-10-21T16:19:16.731Z,14.29
2018-10-21T16:19:32.676Z,14.29
2018-10-21T16:19:48.956Z,14.29
2018-10-21T16:20:05.312Z,14.26
2018-10-21T16:20:21.378Z,14.24
2018-10-21T16:20:37.115Z,14.22
2018-10-21T16:20:52.890Z,14.19
2018-10-21T16:21:08.676Z,14.14
2018-10-21T16:21:24.525Z,14.09
2018-10-21T16:21:40.260Z,14.07
2018-10-21T16:21:56.263Z,14.05
2018-10-21T16:22:12.698Z,14.02
2018-10-21T16:22:28.480Z,14.01
2018-10-21T16:22:44.271Z,13.95
2018-10-21T16:23:00.000Z,13.9
2018-10-21T16:23:15.813Z,13.9
2018-10-21T16:23:31.621Z,13.91
2018-10-21T16:23:47.377Z,13.91
2018-10-21T16:24:03.103Z,13.95
2018-10-21T16:24:18.819Z,13.96
2018-10-21T16:24:34.577Z,13.96
2018-10-21T16:24:50.476Z,13.93
2018-10-21T16:25:06.274Z,13.88
2018-10-21T16:25:22.748Z,13.93
2018-10-21T16:25:39.365Z,13.96
2018-10-21T16:25:56.035Z,13.93
2018-10-21T16:26:12.070Z,13.82
2018-10-21T16:26:28.694Z,13.81
2018-10-21T16:26:44.635Z,13.86
2018-10-21T16:27:00.411Z,13.87
2018-10-21T16:27:16.193Z,13.87
2018-10-21T16:27:31.931Z,13.88
2018-10-21T16:27:48.177Z,13.73
2018-10-21T16:28:04.324Z,13.82
2018-10-21T16:28:20.847Z,13.89
2018-10-21T16:28:36.687Z,13.91
2018-10-21T16:28:52.775Z,13.88
2018-10-21T16:29:08.641Z,13.86
2018-10-21T16:29:24.526Z,13.84
2018-10-21T16:29:40.477Z,13.81
2018-10-21T16:29:56.583Z,13.82
2018-10-21T16:30:12.455Z,13.79
2018-10-21T16:30:28.592Z,13.71
2018-10-21T16:30:44.571Z,13.71
2018-10-21T16:31:00.491Z,13.79
2018-10-21T16:31:16.417Z,13.74
2018-10-21T16:31:32.356Z,13.62
2018-10-21T16:31:48.670Z,13.6
2018-10-21T16:32:05.895Z,13.63
2018-10-21T16:32:22.509Z,13.69
2018-10-21T16:32:39.764Z,13.68
2018-10-21T16:32:56.466Z,13.71
2018-10-21T16:33:12.384Z,13.71
2018-10-21T16:33:28.227Z,13.73
2018-10-21T16:33:44.057Z,13.73
2018-10-21T16:34:00.216Z,13.74
2018-10-21T16:34:16.915Z,13.72
2018-10-21T16:34:32.917Z,13.74
2018-10-21T16:34:48.788Z,13.77
2018-10-21T16:35:04.682Z,13.78
2018-10-21T16:35:20.813Z,13.77
2018-10-21T16:35:36.940Z,13.76
2018-10-21T16:35:52.775Z,13.72
2018-10-21T16:36:08.644Z,13.72
2018-10-21T16:36:24.495Z,13.7
2018-10-21T16:36:40.378Z,13.7
2018-10-21T16:36:56.247Z,13.69
2018-10-21T16:37:12.360Z,13.66
2018-10-21T16:37:28.691Z,13.49
2018-10-21T16:37:44.671Z,13.36
2018-10-21T16:38:00.564Z,13.35
2018-10-21T16:38:16.729Z,13.37
2018-10-21T16:38:33.550Z,13.4
2018-10-21T16:38:49.555Z,13.47
2018-10-21T16:39:05.787Z,13.46
2018-10-21T16:39:21.790Z,13.45
2018-10-21T16:39:37.759Z,13.45
2018-10-21T16:39:53.585Z,13.48
2018-10-21T16:40:09.426Z,13.54
2018-10-21T16:40:25.234Z,13.53
2018-10-21T16:40:41.367Z,13.55
2018-10-21T16:40:57.135Z,13.55
2018-10-21T16:41:12.933Z,13.55
2018-10-21T16:41:28.682Z,13.54
2018-10-21T16:41:44.505Z,13.5
2018-10-21T16:42:00.253Z,13.48
2018-10-21T16:42:16.030Z,13.47
2018-10-21T16:42:31.780Z,13.4
2018-10-21T16:42:47.564Z,13.28
2018-10-21T16:43:03.426Z,13.22
2018-10-21T16:43:19.236Z,13.21
2018-10-21T16:43:35.017Z,13.23
2018-10-21T16:43:50.808Z,13.27
2018-10-21T16:44:06.591Z,13.29
2018-10-21T16:44:22.348Z,13.28
2018-10-21T16:44:38.077Z,13.27
2018-10-21T16:44:54.067Z,13.25
2018-10-21T16:45:10.078Z,13.21
2018-10-21T16:45:25.876Z,13.21
2018-10-21T16:45:41.904Z,13.22
2018-10-21T16:45:57.633Z,13.19
2018-10-21T16:46:13.352Z,13.06
2018-10-21T16:46:29.171Z,13.03
2018-10-21T16:46:44.932Z,13.09
2018-10-21T16:47:00.659Z,13.04
2018-10-21T16:47:16.438Z,12.94
2018-10-21T16:47:32.208Z,12.83
2018-10-21T16:47:47.956Z,12.75
2018-10-21T16:48:04.026Z,12.77
2018-10-21T16:48:19.841Z,12.86
2018-10-21T16:48:35.626Z,12.96
2018-10-21T16:48:51.342Z,12.99
2018-10-21T16:49:07.040Z,13.02
2018-10-21T16:49:22.798Z,13.02
2018-10-21T16:49:38.563Z,12.88
2018-10-21T16:49:54.342Z,12.91
2018-10-21T16:50:10.223Z,13
2018-10-21T16:50:26.292Z,13.01
2018-10-21T16:50:42.304Z,12.87
2018-10-21T16:50:58.589Z,12.84
2018-10-21T16:51:14.579Z,12.96
2018-10-21T16:51:31.120Z,12.98
2018-10-21T16:51:46.898Z,12.83
2018-10-21T16:52:02.662Z,12.69
2018-10-21T16:52:18.457Z,12.69
2018-10-21T16:52:34.176Z,12.72
2018-10-21T16:52:50.146Z,12.78
2018-10-21T16:53:06.213Z,12.86
2018-10-21T16:53:22.508Z,12.89
2018-10-21T16:53:38.458Z,12.92
2018-10-21T16:53:54.414Z,12.88
2018-10-21T16:54:10.820Z,12.82
2018-10-21T16:54:26.868Z,12.76
2018-10-21T16:54:43.419Z,12.68
2018-10-21T16:55:00.147Z,12.66
2018-10-21T16:55:15.911Z,12.66
2018-10-21T16:55:31.685Z,12.58
2018-10-21T16:55:47.775Z,12.49
2018-10-21T16:56:03.629Z,12.5
2018-10-21T16:56:19.438Z,12.52
2018-10-21T16:56:35.200Z,12.46
2018-10-21T16:56:50.995Z,12.49
2018-10-21T16:57:07.263Z,12.4
2018-10-21T16:57:23.273Z,12.49
2018-10-21T16:57:39.714Z,12.62
2018-10-21T16:57:55.707Z,12.69
2018-10-21T16:58:11.433Z,12.65
2018-10-21T16:58:27.253Z,12.59
2018-10-21T16:58:43.036Z,12.59
2018-10-21T16:58:59.199Z,12.47
2018-10-21T16:59:15.887Z,12.47
2018-10-21T16:59:32.000Z,12.41
2018-10-21T16:59:48.615Z,12.47
2018-10-21T17:00:05.122Z,12.56
2018-10-21T17:00:22.071Z,12.54
2018-10-21T17:00:39.833Z,12.59
2018-10-21T17:00:57.752Z,12.5
2018-10-21T17:01:13.803Z,12.44
2018-10-21T17:01:29.745Z,12.35
2018-10-21T17:01:45.595Z,12.3
2018-10-21T17:02:01.374Z,12.31
2018-10-21T17:02:17.205Z,12.35
2018-10-21T17:02:32.983Z,12.23
2018-10-21T17:02:48.981Z,12.13
2018-10-21T17:03:05.228Z,12.08
2018-10-21T17:03:21.898Z,12.08
2018-10-21T17:03:38.365Z,12.12
2018-10-21T17:03:54.429Z,12.15
2018-10-21T17:04:10.380Z,12.19
2018-10-21T17:04:26.280Z,12.21
2018-10-21T17:04:42.135Z,12.22
2018-10-21T17:04:58.150Z,12.1
2018-10-21T17:05:15.077Z,12.02
2018-10-21T17:05:31.386Z,11.92
2018-10-21T17:05:47.515Z,11.94
2018-10-21T17:06:03.608Z,12.17
2018-10-21T17:06:19.531Z,12.28
2018-10-21T17:06:35.329Z,12.13
2018-10-21T17:06:51.337Z,12.11
2018-10-21T17:07:07.514Z,12.13
2018-10-21T17:07:23.398Z,12.22
2018-10-21T17:07:39.367Z,12.28
2018-10-21T17:07:55.311Z,12.32
2018-10-21T17:08:11.237Z,12.33
2018-10-21T17:08:27.163Z,12.34
2018-10-21T17:08:43.173Z,12.32
2018-10-21T17:08:59.617Z,12.21
2018-10-21T17:09:16.521Z,12.23
2018-10-21T17:09:34.074Z,12.16
2018-10-21T17:09:51.860Z,11.88
2018-10-21T17:10:10.500Z,11.9
2018-10-21T17:10:29.886Z,12.02
2018-10-21T17:10:46.719Z,12.09
2018-10-21T17:11:02.802Z,12.13
2018-10-21T17:11:19.311Z,12.12
2018-10-21T17:11:35.206Z,12.13
2018-10-21T17:11:51.086Z,12.14
2018-10-21T17:12:06.973Z,12.17
2018-10-21T17:12:22.863Z,12.19
2018-10-21T17:12:38.769Z,12.13
2018-10-21T17:12:54.841Z,12.14
2018-10-21T17:13:11.148Z,12.07
2018-10-21T17:13:27.100Z,12.02
2018-10-21T17:13:42.971Z,12.04
2018-10-21T17:13:58.863Z,12.07
2018-10-21T17:14:14.842Z,12.08
2018-10-21T17:14:30.735Z,11.99
2018-10-21T17:14:46.618Z,11.91
2018-10-21T17:15:02.448Z,11.81
2018-10-21T17:15:18.298Z,11.78
2018-10-21T17:15:34.209Z,11.78
2018-10-21T17:15:50.003Z,11.81
2018-10-21T17:16:06.121Z,11.83
2018-10-21T17:16:22.464Z,11.9
2018-10-21T17:16:38.294Z,11.94
2018-10-21T17:16:54.170Z,11.94
2018-10-21T17:17:10.702Z,11.9
2018-10-21T17:17:26.564Z,11.78
2018-10-21T17:17:42.419Z,11.72
2018-10-21T17:17:58.277Z,11.71
2018-10-21T17:18:14.057Z,11.73
2018-10-21T17:18:29.799Z,11.74
2018-10-21T17:18:45.582Z,11.75
2018-10-21T17:19:01.595Z,11.78
2018-10-21T17:19:18.216Z,11.83
2018-10-21T17:19:34.065Z,11.81
2018-10-21T17:19:49.794Z,11.66
2018-10-21T17:20:05.532Z,11.64
2018-10-21T17:20:21.289Z,11.62
2018-10-21T17:20:37.284Z,11.55
2018-10-21T17:20:53.119Z,11.52
2018-10-21T17:21:08.862Z,11.55
2018-10-21T17:21:24.879Z,11.62
2018-10-21T17:21:40.580Z,11.57
2018-10-21T17:21:56.558Z,11.49
2018-10-21T17:22:12.751Z,11.38
2018-10-21T17:22:28.571Z,11.3
2018-10-21T17:22:44.342Z,11.36
2018-10-21T17:23:00.082Z,11.45
2018-10-21T17:23:15.851Z,11.53
2018-10-21T17:23:31.577Z,11.52
2018-10-21T17:23:47.332Z,11.58
2018-10-21T17:24:03.202Z,11.6
2018-10-21T17:24:19.573Z,11.62
2018-10-21T17:24:35.313Z,11.66
2018-10-21T17:24:51.058Z,11.68
2018-10-21T17:25:07.170Z,11.68
2018-10-21T17:25:22.983Z,11.73
2018-10-21T17:25:38.790Z,11.8
2018-10-21T17:25:54.596Z,11.86
2018-10-21T17:26:10.402Z,11.93
2018-10-21T17:26:26.440Z,12.01
2018-10-21T17:26:42.146Z,12.06
2018-10-21T17:26:57.920Z,11.96
2018-10-21T17:27:13.661Z,11.8
2018-10-21T17:27:29.360Z,11.72
2018-10-21T17:27:45.143Z,11.73
2018-10-21T17:28:01.172Z,11.73
2018-10-21T17:28:17.734Z,11.67
2018-10-21T17:28:33.565Z,11.68
2018-10-21T17:28:49.331Z,11.62
2018-10-21T17:29:05.105Z,11.59
2018-10-21T17:29:20.962Z,11.56
2018-10-21T17:29:36.736Z,11.57
2018-10-21T17:29:52.549Z,11.56
2018-10-21T17:30:08.302Z,11.33
2018-10-21T17:30:24.280Z,11.13
2018-10-21T17:30:40.658Z,11.11
2018-10-21T17:30:56.718Z,11.19
2018-10-21T17:31:13.122Z,11.3
2018-10-21T17:31:29.247Z,11.41
2018-10-21T17:31:45.072Z,11.43
2018-10-21T17:32:00.884Z,11.37
2018-10-21T17:32:16.642Z,11.41
2018-10-21T17:32:32.403Z,11.45
2018-10-21T17:32:48.212Z,11.5
2018-10-21T17:33:03.988Z,11.42
2018-10-21T17:33:19.739Z,11.43
2018-10-21T17:33:35.443Z,11.42
2018-10-21T17:33:51.218Z,11.34
2018-10-21T17:34:07.385Z,11.26
2018-10-21T17:34:23.171Z,11.31
2018-10-21T17:34:38.932Z,11.26
2018-10-21T17:34:54.638Z,11.31
2018-10-21T17:35:10.367Z,11.3
2018-10-21T17:35:26.057Z,11.26
2018-10-21T17:35:41.998Z,11.22
2018-10-21T17:35:57.678Z,11.25
2018-10-21T17:36:13.406Z,11.26
2018-10-21T17:36:29.353Z,11.29
2018-10-21T17:36:45.044Z,11.24
2018-10-21T17:37:01.032Z,11.21
2018-10-21T17:37:17.341Z,11.19
2018-10-21T17:37:33.109Z,11.22
2018-10-21T17:37:48.871Z,11.22
2018-10-21T17:38:04.624Z,11.24
2018-10-21T17:38:20.347Z,11.21
2018-10-21T17:38:36.101Z,11.15
2018-10-21T17:38:51.859Z,11.15
2018-10-21T17:39:07.619Z,11.1
2018-10-21T17:39:23.345Z,11.08
2018-10-21T17:39:39.145Z,11.04
2018-10-21T17:39:55.161Z,11.03
2018-10-21T17:40:11.614Z,11.09
2018-10-21T17:40:27.669Z,11.08
2018-10-21T17:40:44.225Z,10.85
2018-10-21T17:41:00.144Z,10.82
2018-10-21T17:41:16.007Z,10.8
2018-10-21T17:41:32.155Z,10.81
2018-10-21T17:41:48.133Z,10.81
2018-10-21T17:42:04.018Z,10.84
2018-10-21T17:42:19.898Z,10.89
2018-10-21T17:42:35.772Z,10.9
2018-10-21T17:42:51.677Z,10.92
2018-10-21T17:43:08.118Z,10.99
2018-10-21T17:43:23.993Z,11.03
2018-10-21T17:43:39.832Z,11.02
2018-10-21T17:43:55.797Z,11.05
2018-10-21T17:44:11.648Z,11.12
2018-10-21T17:44:27.545Z,11.03
2018-10-21T17:44:43.454Z,10.95
2018-10-21T17:44:59.294Z,10.84
2018-10-21T17:45:15.139Z,10.74
2018-10-21T17:45:30.986Z,10.65
2018-10-21T17:45:47.054Z,10.55
2018-10-21T17:46:03.102Z,10.56
2018-10-21T17:46:19.670Z,10.53
2018-10-21T17:46:36.423Z,10.45
2018-10-21T17:46:52.244Z,10.46
2018-10-21T17:47:07.935Z,10.54
2018-10-21T17:47:23.662Z,10.62
2018-10-21T17:47:39.379Z,10.69
2018-10-21T17:47:55.147Z,10.75
2018-10-21T17:48:10.942Z,10.81
2018-10-21T17:48:26.649Z,10.81
2018-10-21T17:48:42.338Z,10.8
2018-10-21T17:48:58.249Z,10.84
2018-10-21T17:49:14.436Z,10.85
2018-10-21T17:49:30.249Z,10.92
2018-10-21T17:49:45.965Z,10.98
2018-10-21T17:50:01.687Z,11.04
2018-10-21T17:50:17.372Z,11.08
2018-10-21T17:50:33.075Z,11.14
2018-10-21T17:50:49.095Z,11.18
2018-10-21T17:51:04.792Z,11.19
2018-10-21T17:51:20.482Z,11.17
2018-10-21T17:51:36.462Z,11.06
2018-10-21T17:51:52.402Z,11.01
2018-10-21T17:52:08.706Z,10.79
2018-10-21T17:52:24.793Z,10.76
2018-10-21T17:52:40.572Z,10.65
2018-10-21T17:52:56.250Z,10.58
2018-10-21T17:53:11.955Z,10.56
2018-10-21T17:53:27.664Z,10.53
2018-10-21T17:53:43.380Z,10.48
2018-10-21T17:53:59.064Z,10.51
2018-10-21T17:54:14.773Z,10.52
2018-10-21T17:54:30.488Z,10.55
2018-10-21T17:54:46.193Z,10.57
2018-10-21T17:55:03.401Z,10.56
2018-10-21T17:55:19.917Z,10.61
2018-10-21T17:55:35.713Z,10.58
2018-10-21T17:55:51.430Z,10.5
2018-10-21T17:56:07.125Z,10.49
2018-10-21T17:56:22.831Z,10.48
2018-10-21T17:56:38.804Z,10.45
2018-10-21T17:56:54.505Z,10.44
2018-10-21T17:57:10.210Z,10.43
2018-10-21T17:57:25.940Z,10.31
2018-10-21T17:57:41.688Z,10.17
2018-10-21T17:57:57.677Z,10.12
2018-10-21T17:58:14.077Z,10.14
2018-10-21T17:58:31.345Z,10.2
2018-10-21T17:58:47.174Z,10.27
2018-10-21T17:59:02.907Z,10.32
2018-10-21T17:59:18.608Z,10.22
2018-10-21T17:59:34.292Z,10.26
2018-10-21T17:59:50.050Z,10.3
2018-10-21T18:00:05.793Z,10.33
2018-10-21T18:00:21.509Z,10.34
2018-10-21T18:00:37.192Z,10.26
2018-10-21T18:00:52.999Z,10.18
2018-10-21T18:01:08.905Z,10.19
2018-10-21T18:01:24.665Z,10.12
2018-10-21T18:01:40.628Z,10.16
2018-10-21T18:01:56.340Z,10.15
2018-10-21T18:02:12.055Z,10.21
2018-10-21T18:02:27.749Z,10.22
2018-10-21T18:02:43.472Z,10.18
2018-10-21T18:02:59.178Z,10.13
2018-10-21T18:03:14.880Z,10.07
2018-10-21T18:03:30.555Z,10.04
2018-10-21T18:03:46.236Z,10.07
2018-10-21T18:04:02.222Z,10.05
2018-10-21T18:04:17.931Z,10.04
2018-10-21T18:04:33.634Z,10.05
2018-10-21T18:04:49.434Z,10.11
2018-10-21T18:05:05.131Z,10.21
2018-10-21T18:05:20.870Z,10.2
2018-10-21T18:05:36.644Z,10.2
2018-10-21T18:05:52.736Z,10.21
2018-10-21T18:06:08.484Z,10.13
2018-10-21T18:06:24.262Z,10.03
2018-10-21T18:06:40.493Z,9.94
2018-10-21T18:06:56.842Z,9.86
2018-10-21T18:07:13.258Z,9.77
2018-10-21T18:07:29.158Z,9.74
2018-10-21T18:07:45.000Z,9.75
2018-10-21T18:08:00.847Z,9.75
2018-10-21T18:08:16.598Z,9.8
2018-10-21T18:08:32.308Z,9.85
2018-10-21T18:08:48.216Z,9.89
2018-10-21T18:09:03.960Z,9.9
2018-10-21T18:09:19.701Z,9.9
2018-10-21T18:09:35.434Z,9.93
2018-10-21T18:09:51.198Z,9.96
2018-10-21T18:10:07.292Z,10
2018-10-21T18:10:23.153Z,10.04
2018-10-21T18:10:38.957Z,10.08
2018-10-21T18:10:54.758Z,10.11
2018-10-21T18:11:10.703Z,10.17
2018-10-21T18:11:26.579Z,10.21
2018-10-21T18:11:42.407Z,10.23
2018-10-21T18:11:58.437Z,10.29
2018-10-21T18:12:14.259Z,10.17
2018-10-21T18:12:30.114Z,10.16
2018-10-21T18:12:45.978Z,10.02
2018-10-21T18:13:02.156Z,9.88
2018-10-21T18:13:18.407Z,9.67
2018-10-21T18:13:34.265Z,9.57
2018-10-21T18:13:50.232Z,9.55
2018-10-21T18:14:06.944Z,9.58
2018-10-21T18:14:22.668Z,9.56
2018-10-21T18:14:38.375Z,9.54
2018-10-21T18:14:54.070Z,9.61
2018-10-21T18:15:09.806Z,9.67
2018-10-21T18:15:25.514Z,9.73
2018-10-21T18:15:41.220Z,9.75
2018-10-21T18:15:57.080Z,9.64
2018-10-21T18:16:13.427Z,9.56
2018-10-21T18:16:29.207Z,9.62
2018-10-21T18:16:44.940Z,9.68
2018-10-21T18:17:00.947Z,9.77
2018-10-21T18:17:16.682Z,9.82
2018-10-21T18:17:32.387Z,9.87
2018-10-21T18:17:48.148Z,9.94
2018-10-21T18:18:03.859Z,10.05
2018-10-21T18:18:19.731Z,10.06
2018-10-21T18:18:35.461Z,9.94
2018-10-21T18:18:53.250Z,9.86
2018-10-21T18:19:09.425Z,9.82
2018-10-21T18:19:25.208Z,9.7
2018-10-21T18:19:40.907Z,9.66
2018-10-21T18:19:57.018Z,9.69
2018-10-21T18:20:12.846Z,9.68
2018-10-21T18:20:28.792Z,9.71
2018-10-21T18:20:44.888Z,9.68
2018-10-21T18:21:00.926Z,9.61
2018-10-21T18:21:16.618Z,9.66
2018-10-21T18:21:32.321Z,9.76
2018-10-21T18:21:48.217Z,9.84
2018-10-21T18:22:04.523Z,9.92
2018-10-21T18:22:20.359Z,9.99
2018-10-21T18:22:36.061Z,10.03
2018-10-21T18:22:51.764Z,9.97
2018-10-21T18:23:07.479Z,9.83
2018-10-21T18:23:23.197Z,9.8
2018-10-21T18:23:38.884Z,9.81
2018-10-21T18:23:54.674Z,9.83
2018-10-21T18:24:10.369Z,9.79
2018-10-21T18:24:26.066Z,9.73
2018-10-21T18:24:41.758Z,9.65
2018-10-21T18:24:57.684Z,9.62
2018-10-21T18:25:14.290Z,9.55
2018-10-21T18:25:30.006Z,9.45
2018-10-21T18:25:45.703Z,9.36
2018-10-21T18:26:01.765Z,9.31
2018-10-21T18:26:17.548Z,9.34
2018-10-21T18:26:33.262Z,9.32
2018-10-21T18:26:49.057Z,9.21
2018-10-21T18:27:05.054Z,9.21
2018-10-21T18:27:20.747Z,9.24
2018-10-21T18:27:36.481Z,9.21
2018-10-21T18:27:52.280Z,9.1
2018-10-21T18:28:08.218Z,9.08
2018-10-21T18:28:23.950Z,9.12
2018-10-21T18:28:39.657Z,9.21
2018-10-21T18:28:55.522Z,9.28
2018-10-21T18:29:11.297Z,9.32
2018-10-21T18:29:27.053Z,9.28
2018-10-21T18:29:42.798Z,9.2
2018-10-21T18:29:58.551Z,9.22
2018-10-21T18:30:14.314Z,9.31
2018-10-21T18:30:30.047Z,9.3
2018-10-21T18:30:46.672Z,9.3
2018-10-21T18:31:02.668Z,9.3
2018-10-21T18:31:18.811Z,9.24
2018-10-21T18:31:34.530Z,9.3
2018-10-21T18:31:50.304Z,9.35
2018-10-21T18:32:06.291Z,9.43
2018-10-21T18:32:22.021Z,9.43
2018-10-21T18:32:37.789Z,9.46
2018-10-21T18:32:53.910Z,9.47
2018-10-21T18:33:10.374Z,9.49
2018-10-21T18:33:26.227Z,9.41
2018-10-21T18:33:42.091Z,9.27
2018-10-21T18:33:58.076Z,9.28
2018-10-21T18:34:14.700Z,9.29
2018-10-21T18:34:30.597Z,9.28
2018-10-21T18:34:46.505Z,9.32
2018-10-21T18:35:02.343Z,9.39
2018-10-21T18:35:18.249Z,9.48
2018-10-21T18:35:34.122Z,9.42
2018-10-21T18:35:49.980Z,9.4
2018-10-21T18:36:06.077Z,9.48
2018-10-21T18:36:21.984Z,9.54
2018-10-21T18:36:37.838Z,9.48
2018-10-21T18:36:53.821Z,9.38
2018-10-21T18:37:10.899Z,9.36